createdAt,value
2022-10-17T03:01:31.819Z,99.90
2022-10-17T03:04:08.445Z,99.90
2022-10-17T03:06:35.648Z,99.90
2022-10-17T03:09:02.917Z,99.90
2022-10-17T03:11:30.131Z,99.90
2022-10-17T03:13:57.254Z,99.90
2022-10-17T03:16:24.472Z,99.90
2022-10-17T03:18:51.610Z,99.90
2022-10-17T03:21:18.777Z,99.90
2022-10-17T03:23:45.913Z,99.90
2022-10-17T03:26:13.242Z,99.90
2022-10-17T03:28:40.524Z,99.90
2022-10-17T03:31:13.116Z,99.90
2022-10-17T03:33:40.211Z,99.90
2022-10-17T03:36:09.244Z,99.90
2022-10-17T03:38:36.544Z,99.90
2022-10-17T03:41:04.529Z,99.90
2022-10-17T03:43:31.760Z,99.90
2022-10-17T03:46:00.173Z,99.90
2022-10-17T03:48:28.739Z,99.90
2022-10-17T03:51:01.187Z,99.90
2022-10-17T03:53:28.800Z,99.90
2022-10-17T03:55:56.844Z,99.90
2022-10-17T03:58:24.023Z,99.90
2022-10-17T04:00:51.271Z,99.90
2022-10-17T04:03:18.383Z,99.90
2022-10-17T04:05:45.532Z,99.90
2022-10-17T04:08:12.656Z,99.90
2022-10-17T04:10:39.832Z,99.90
2022-10-17T04:13:07.038Z,99.90
2022-10-17T04:15:34.242Z,99.90
2022-10-17T04:18:01.347Z,99.90
2022-10-17T04:20:28.484Z,99.90
2022-10-17T04:22:55.576Z,99.90
2022-10-17T04:25:22.753Z,99.90
2022-10-17T04:27:49.856Z,99.90
2022-10-17T04:30:17.518Z,99.90
2022-10-17T04:32:44.701Z,99.90
2022-10-17T04:35:11.902Z,99.90
2022-10-17T04:37:39.079Z,99.90
2022-10-17T04:40:06.827Z,99.90
2022-10-17T04:42:34.011Z,99.90
2022-10-17T04:45:01.133Z,99.90
2022-10-17T04:47:28.260Z,99.90
2022-10-17T04:49:55.407Z,99.90
2022-10-17T04:52:22.620Z,99.90
2022-10-17T04:54:49.743Z,99.90
2022-10-17T04:57:17.128Z,99.90
2022-10-17T04:59:44.416Z,99.90
2022-10-17T05:02:11.971Z,99.90
2022-10-17T05:04:39.080Z,99.90
2022-10-17T05:07:06.304Z,99.90
2022-10-17T05:09:33.392Z,99.90
2022-10-17T05:12:00.505Z,99.90
2022-10-17T05:14:27.800Z,99.90
2022-10-17T05:16:54.993Z,99.90
2022-10-17T05:19:22.091Z,99.90
2022-10-17T05:21:49.212Z,99.90
2022-10-17T05:24:16.383Z,99.90
2022-10-17T05:26:43.552Z,99.90
2022-10-17T05:29:10.949Z,99.90
2022-10-17T05:31:38.153Z,99.90
2022-10-17T05:34:07.084Z,99.90
2022-10-17T05:36:36.420Z,99.90
2022-10-17T05:39:06.655Z,99.90
2022-10-17T05:41:33.771Z,99.90
2022-10-17T05:44:04.626Z,99.90
2022-10-17T05:46:32.819Z,99.90
2022-10-17T05:48:59.965Z,99.90
2022-10-17T05:51:27.138Z,99.90
2022-10-17T05:53:54.364Z,99.90
2022-10-17T05:56:21.476Z,99.90
2022-10-17T05:58:50.962Z,99.90
2022-10-17T06:01:20.247Z,99.90
2022-10-17T06:03:47.437Z,99.90
2022-10-17T06:06:15.592Z,99.90
2022-10-17T06:08:43.233Z,99.90
2022-10-17T06:11:11.359Z,99.90
2022-10-17T06:13:39.462Z,99.90
2022-10-17T06:16:07.062Z,99.90
2022-10-17T06:18:34.204Z,99.90
2022-10-17T06:21:06.581Z,99.90
2022-10-17T06:23:34.159Z,99.90
2022-10-17T06:26:02.659Z,99.90
2022-10-17T06:28:30.229Z,99.90
2022-10-17T06:30:57.641Z,99.90
2022-10-17T06:33:24.899Z,99.90
2022-10-17T06:35:53.303Z,99.90
2022-10-17T06:38:21.056Z,99.90
2022-10-17T06:40:48.212Z,99.90
2022-10-17T06:43:15.372Z,99.90
2022-10-17T06:45:42.588Z,99.90
2022-10-17T06:48:09.868Z,99.90
2022-10-17T06:50:36.961Z,99.90
2022-10-17T06:53:04.095Z,99.90
2022-10-17T06:55:32.551Z,99.90
2022-10-17T06:57:59.696Z,99.90
2022-10-17T07:00:26.907Z,99.90
2022-10-17T07:02:54.054Z,99.90
2022-10-17T07:05:21.200Z,99.90
2022-10-17T07:07:50.967Z,99.90
2022-10-17T07:10:19.181Z,99.90
2022-10-17T07:12:46.392Z,99.90
2022-10-17T07:15:13.560Z,99.90
2022-10-17T07:17:40.650Z,99.90
2022-10-17T07:20:08.479Z,99.90
2022-10-17T07:22:35.599Z,99.90
2022-10-17T07:25:02.707Z,99.90
2022-10-17T07:27:30.040Z,99.90
2022-10-17T07:29:57.374Z,99.90
2022-10-17T07:32:24.520Z,99.90
2022-10-17T07:34:51.628Z,99.90
2022-10-17T07:37:18.809Z,99.90
2022-10-17T07:39:45.957Z,99.90
2022-10-17T07:42:14.469Z,99.90
2022-10-17T07:44:41.697Z,99.90
2022-10-17T07:47:08.858Z,99.90
2022-10-17T07:49:36.016Z,99.90
2022-10-17T07:52:03.146Z,99.90
2022-10-17T07:54:30.286Z,99.90
2022-10-17T07:56:57.430Z,99.90
2022-10-17T07:59:24.629Z,99.90
2022-10-17T08:01:54.920Z,99.90
2022-10-17T08:04:22.052Z,99.90
2022-10-17T08:06:53.447Z,99.90
2022-10-17T08:09:23.608Z,99.90
2022-10-17T08:11:50.772Z,99.90
2022-10-17T08:14:17.937Z,99.90
2022-10-17T08:16:45.124Z,99.90
2022-10-17T08:19:13.016Z,99.90
2022-10-17T08:21:41.321Z,99.90
2022-10-17T08:24:08.869Z,99.90
2022-10-17T08:26:39.264Z,99.90
2022-10-17T08:29:14.595Z,99.90
2022-10-17T08:31:45.280Z,99.90
2022-10-17T08:34:15.831Z,99.90
2022-10-17T08:36:42.931Z,99.90
2022-10-17T08:39:10.096Z,99.90
2022-10-17T08:41:47.105Z,99.90
2022-10-17T08:44:18.329Z,99.90
2022-10-17T08:46:49.039Z,99.90
2022-10-17T08:49:25.957Z,99.90
2022-10-17T08:52:04.527Z,99.90
2022-10-17T08:54:40.491Z,99.90
2022-10-17T08:57:13.298Z,99.90
2022-10-17T08:59:40.704Z,99.90
2022-10-17T09:02:16.756Z,99.90
2022-10-17T09:05:25.528Z,99.90
2022-10-17T09:08:19.384Z,99.90
2022-10-17T09:11:10.064Z,99.90
2022-10-17T09:13:59.001Z,99.90
2022-10-17T09:17:07.666Z,99.90
2022-10-17T09:19:38.846Z,99.90
2022-10-17T09:22:22.828Z,99.90
2022-10-17T09:24:59.184Z,99.90
2022-10-17T09:27:48.614Z,99.90
2022-10-17T09:30:45.277Z,99.90
2022-10-17T09:33:35.684Z,99.90
2022-10-17T09:36:17.407Z,99.90
2022-10-17T09:38:59.728Z,99.90
2022-10-17T09:41:49.996Z,99.90
2022-10-17T09:44:17.216Z,99.90
2022-10-17T09:47:23.817Z,99.90
2022-10-17T09:49:51.745Z,99.90
2022-10-17T09:52:22.674Z,99.90
2022-10-17T09:54:53.595Z,99.90
2022-10-17T09:57:21.988Z,99.90
2022-10-17T10:00:05.300Z,99.90
2022-10-17T10:02:36.380Z,99.90
2022-10-17T10:05:19.947Z,99.90
2022-10-17T10:08:03.808Z,99.90
2022-10-17T10:10:32.116Z,99.90
2022-10-17T10:13:16.162Z,99.90
2022-10-17T10:15:45.817Z,99.90
2022-10-17T10:18:24.867Z,99.90
2022-10-17T10:21:09.964Z,99.90
2022-10-17T10:23:41.856Z,99.90
2022-10-17T10:26:12.462Z,99.90
2022-10-17T10:28:40.170Z,99.90
2022-10-17T10:31:09.390Z,99.90
2022-10-17T10:33:43.016Z,99.90
2022-10-17T10:36:12.157Z,99.90
2022-10-17T10:38:40.968Z,99.90
2022-10-17T10:41:10.299Z,99.90
2022-10-17T10:43:45.241Z,99.90
2022-10-17T10:46:28.015Z,99.40
2022-10-17T10:49:00.153Z,99.90
2022-10-17T10:51:41.420Z,99.90
2022-10-17T10:54:33.347Z,99.10
2022-10-17T10:57:04.468Z,97.30
2022-10-17T11:00:04.912Z,98.20
2022-10-17T11:02:54.320Z,98.00
2022-10-17T11:05:53.888Z,99.10
2022-10-17T11:08:24.124Z,99.00
2022-10-17T11:11:19.765Z,97.10
2022-10-17T11:14:08.074Z,98.30
2022-10-17T11:16:44.604Z,97.70
2022-10-17T11:19:45.260Z,99.90
2022-10-17T11:22:31.236Z,98.80
2022-10-17T11:25:12.557Z,97.80
2022-10-17T11:27:39.659Z,98.10
2022-10-17T11:30:12.405Z,98.30
2022-10-17T11:32:46.719Z,97.50
2022-10-17T11:35:27.703Z,99.30
2022-10-17T11:38:21.825Z,99.60
2022-10-17T11:40:52.174Z,97.40
2022-10-17T11:43:54.286Z,97.80
2022-10-17T11:46:26.802Z,95.90
2022-10-17T11:49:16.119Z,96.40
2022-10-17T11:52:00.463Z,95.50
2022-10-17T11:54:41.708Z,94.50
2022-10-17T11:57:29.581Z,93.00
2022-10-17T12:00:02.359Z,94.50
2022-10-17T12:02:50.948Z,93.20
2022-10-17T12:05:45.438Z,93.90
2022-10-17T12:08:39.209Z,94.10
2022-10-17T12:11:38.386Z,94.10
2022-10-17T12:14:34.441Z,94.60
2022-10-17T12:17:03.166Z,94.20
2022-10-17T12:19:33.837Z,93.70
2022-10-17T12:22:05.841Z,93.70
2022-10-17T12:24:41.240Z,93.70
2022-10-17T12:27:30.091Z,92.40
2022-10-17T12:30:03.371Z,93.10
2022-10-17T12:32:46.977Z,94.00
2022-10-17T12:35:23.823Z,93.20
2022-10-17T12:37:50.945Z,93.50
2022-10-17T12:40:36.228Z,94.20
2022-10-17T12:43:15.786Z,94.40
2022-10-17T12:45:50.198Z,95.40
2022-10-17T12:48:42.081Z,95.40
2022-10-17T12:51:35.390Z,95.30
2022-10-17T12:54:13.458Z,95.20
2022-10-17T12:56:42.260Z,93.90
2022-10-17T12:59:29.830Z,94.90
2022-10-17T13:02:00.116Z,93.50
2022-10-17T13:04:29.717Z,94.60
2022-10-17T13:06:59.003Z,92.20
2022-10-17T13:09:30.022Z,93.70
2022-10-17T13:12:00.406Z,93.00
2022-10-17T13:14:28.407Z,92.70
2022-10-17T13:17:03.975Z,90.10
2022-10-17T13:19:40.467Z,90.70
2022-10-17T13:22:22.648Z,92.10
2022-10-17T13:24:51.470Z,92.00
2022-10-17T13:27:23.096Z,91.80
2022-10-17T13:29:50.315Z,91.70
2022-10-17T13:32:17.853Z,90.60
2022-10-17T13:34:44.965Z,89.10
2022-10-17T13:37:15.514Z,86.80
2022-10-17T13:39:55.168Z,89.60
2022-10-17T13:42:27.485Z,90.20
2022-10-17T13:44:56.505Z,88.60
2022-10-17T13:47:26.418Z,89.70
2022-10-17T13:49:55.678Z,91.10
2022-10-17T13:52:26.888Z,91.60
2022-10-17T13:54:55.442Z,91.00
2022-10-17T13:57:30.876Z,90.80
2022-10-17T13:59:59.614Z,91.10
2022-10-17T14:02:30.290Z,91.40
2022-10-17T14:05:23.616Z,91.00
2022-10-17T14:08:10.524Z,91.30
2022-10-17T14:10:41.013Z,92.20
2022-10-17T14:13:18.805Z,93.40
2022-10-17T14:15:46.603Z,94.60
2022-10-17T14:18:29.083Z,94.70
2022-10-17T14:23:46.346Z,94.40
2022-10-17T14:26:15.464Z,94.10
2022-10-17T14:28:45.451Z,95.10
2022-10-17T14:31:17.145Z,96.40
2022-10-17T14:33:50.491Z,96.00
2022-10-17T14:36:19.837Z,96.10
2022-10-17T14:38:55.889Z,96.80
2022-10-17T14:41:42.457Z,98.10
2022-10-17T14:44:19.262Z,98.40
2022-10-17T14:46:50.993Z,98.60
2022-10-17T14:49:26.011Z,99.40
2022-10-17T14:52:18.624Z,99.40
2022-10-17T14:54:48.089Z,99.90
2022-10-17T14:57:23.627Z,99.60
2022-10-17T14:59:55.411Z,99.90
2022-10-17T15:02:24.712Z,99.90
2022-10-17T15:04:52.183Z,99.90
2022-10-17T15:07:21.264Z,99.90
2022-10-17T15:09:50.278Z,99.90
2022-10-17T15:12:19.589Z,99.90
2022-10-17T15:14:50.622Z,99.90
2022-10-17T15:17:27.676Z,99.90
2022-10-17T15:19:55.553Z,99.90
2022-10-17T15:22:23.388Z,99.90
2022-10-17T15:24:50.719Z,99.90
2022-10-17T15:27:23.321Z,99.90
2022-10-17T15:29:51.638Z,99.90
2022-10-17T15:32:19.178Z,99.90
2022-10-17T15:34:46.415Z,99.90
2022-10-17T15:37:22.345Z,99.90
2022-10-17T15:39:54.584Z,99.90
2022-10-17T15:42:26.327Z,99.90
2022-10-17T15:44:53.857Z,99.90
2022-10-17T15:47:28.478Z,99.90
2022-10-17T15:49:56.027Z,99.90
2022-10-17T15:52:23.708Z,99.90
2022-10-17T15:54:51.226Z,99.90
2022-10-17T15:57:21.424Z,99.90
2022-10-17T15:59:50.441Z,99.90
2022-10-17T16:02:20.203Z,99.90
2022-10-17T16:04:49.120Z,99.90
2022-10-17T16:07:16.958Z,99.90
2022-10-17T16:09:44.193Z,99.90
2022-10-17T16:12:16.400Z,99.90
2022-10-17T16:14:43.562Z,99.90
2022-10-17T16:17:17.652Z,99.90
2022-10-17T16:19:45.241Z,99.90
2022-10-17T16:22:26.314Z,99.90
2022-10-17T16:25:07.216Z,99.90
2022-10-17T16:27:34.392Z,99.90
2022-10-17T16:30:01.787Z,99.90
2022-10-17T16:32:29.176Z,99.90
2022-10-17T16:34:56.520Z,99.90
2022-10-17T16:37:23.721Z,99.90
2022-10-17T16:39:52.497Z,99.90
2022-10-17T16:42:23.326Z,99.90
2022-10-17T16:44:50.801Z,99.90
2022-10-17T16:47:19.057Z,99.90
2022-10-17T16:49:46.224Z,99.90
2022-10-17T16:52:13.861Z,99.90
2022-10-17T16:54:41.142Z,99.90
2022-10-17T16:57:08.402Z,99.90
2022-10-17T16:59:35.532Z,99.90
2022-10-17T17:02:02.715Z,99.90
2022-10-17T17:04:29.997Z,99.90
2022-10-17T17:06:57.292Z,99.90
2022-10-17T17:09:24.443Z,99.90
2022-10-17T17:11:51.895Z,99.90
2022-10-17T17:14:19.037Z,99.90
2022-10-17T17:16:46.196Z,99.90
2022-10-17T17:19:16.846Z,99.90
2022-10-17T17:21:51.014Z,99.90
2022-10-17T17:24:22.846Z,99.90
2022-10-17T17:26:54.687Z,99.90
2022-10-17T17:29:22.852Z,99.90
2022-10-17T17:31:50.710Z,99.90
2022-10-17T17:34:18.510Z,99.90
2022-10-17T17:36:45.885Z,99.90
2022-10-17T17:39:14.578Z,99.90
2022-10-17T17:41:43.207Z,99.90
2022-10-17T17:44:15.591Z,99.90
2022-10-17T17:46:44.651Z,99.90
2022-10-17T17:49:12.264Z,99.90
2022-10-17T17:51:41.462Z,99.90
2022-10-17T17:54:11.510Z,99.90
2022-10-17T17:56:39.292Z,99.90
2022-10-17T17:59:06.736Z,99.90
2022-10-17T18:01:39.033Z,99.90
2022-10-17T18:04:11.091Z,99.90
2022-10-17T18:06:41.339Z,99.90
2022-10-17T18:09:09.216Z,99.90
2022-10-17T18:11:37.453Z,99.90
2022-10-17T18:14:07.590Z,99.90
2022-10-17T18:16:37.111Z,99.90
2022-10-17T18:19:07.106Z,99.90
2022-10-17T18:21:35.833Z,99.90
2022-10-17T18:24:04.770Z,99.90
2022-10-17T18:26:32.553Z,99.90
2022-10-17T18:28:59.768Z,99.90
2022-10-17T18:31:35.321Z,99.90
2022-10-17T18:34:03.740Z,99.90
2022-10-17T18:36:31.862Z,99.90
2022-10-17T18:39:00.480Z,99.90
2022-10-17T18:41:28.355Z,99.90
2022-10-17T18:43:56.633Z,99.90
2022-10-17T18:46:30.100Z,99.90
2022-10-17T18:48:57.326Z,99.90
2022-10-17T18:51:25.815Z,99.90
2022-10-17T18:53:54.853Z,99.90
2022-10-17T18:56:22.831Z,99.90
2022-10-17T18:58:50.300Z,99.90
2022-10-17T19:01:22.977Z,99.90
2022-10-17T19:03:51.903Z,99.90
2022-10-17T19:06:22.061Z,99.90
2022-10-17T19:08:49.279Z,99.90
2022-10-17T19:11:25.340Z,99.90
2022-10-17T19:13:53.073Z,99.90
2022-10-17T19:16:29.718Z,99.90
2022-10-17T19:18:59.663Z,99.90
2022-10-17T19:21:27.250Z,99.90
2022-10-17T19:23:56.835Z,99.90
2022-10-17T19:26:25.860Z,99.90
2022-10-17T19:28:53.815Z,99.90
2022-10-17T19:31:26.835Z,99.90
2022-10-17T19:33:56.152Z,99.90
2022-10-17T19:36:28.892Z,99.90
2022-10-17T19:39:00.419Z,99.90
2022-10-17T19:41:28.210Z,99.90
2022-10-17T19:43:55.487Z,99.90
2022-10-17T19:46:26.422Z,99.90
2022-10-17T19:48:53.654Z,99.90
2022-10-17T19:51:24.507Z,99.90
2022-10-17T19:53:52.722Z,99.90
2022-10-17T19:56:21.297Z,99.90
2022-10-17T19:58:49.866Z,99.90
2022-10-17T20:01:19.828Z,99.90
2022-10-17T20:03:47.319Z,99.90
2022-10-17T20:06:15.413Z,99.90
2022-10-17T20:08:42.898Z,99.90
2022-10-17T20:11:14.770Z,99.90
2022-10-17T20:13:42.180Z,99.90
2022-10-17T20:16:13.165Z,99.90
2022-10-17T20:18:40.910Z,99.90
2022-10-17T20:21:13.947Z,99.90
2022-10-17T20:23:41.946Z,99.90
2022-10-17T20:26:26.088Z,99.90
2022-10-17T20:29:02.872Z,99.90
2022-10-17T20:31:30.389Z,99.90
2022-10-17T20:33:58.919Z,99.90
2022-10-17T20:36:26.187Z,99.90
2022-10-17T20:38:57.798Z,99.90
2022-10-17T20:41:26.411Z,99.90
2022-10-17T20:43:55.011Z,99.90
2022-10-17T20:46:35.506Z,99.90
2022-10-17T20:49:04.917Z,99.90
2022-10-17T20:51:32.105Z,99.90
2022-10-17T20:53:59.552Z,99.90
2022-10-17T20:56:29.366Z,99.90
2022-10-17T20:59:00.068Z,99.90
